My Meet Scores
Aubrey Dron, Aerial Gymnastics Club - MyMeetScores.com
Top100 | Top Teams | Upcoming Meets | Completed Meets | Latest | Add Scores | Help| Support | Bookmark and Share

Aubrey Dron, Aerial Gymnastics Club
Personal Bests
LevelVault BarsBeamFloorAA
38.9008.575 8.6008.67534.750
48.6759.475 9.6509.42536.425
68.9259.150 9.3509.65037.075
Meet Scores
Date Meet Team Session Level Division Vault Bars Beam Floor AA
2019-03-15 Illinois State Championship Level 6,9,10 Aerial Gymnastics Club 10 6 Jr C 8.925 13T 9.150 9 9.350 10T 9.650 2T 37.075 6
2019-02-15 Women's Midwest Open Aerial Gymnastics Club 01 6 Junior A 8.550 7 8.900 9 9.175 6 9.525 6T 36.150 6
2019-01-19 2019 Hang 10.0 Invitational Aerial Gymnastics Club 1 6 10 Yr Olds 8.400 5T 8.900 5T 8.725 10 9.350 1 35.375 5
2019-01-11 St Jude Benefit Meet Aerial Gymnastics Club 2B 6 Jr A 8.325 7 9.100 7 8.900 7T 9.600 3T 35.925 4
2018-12-14 Hawaiian Pineapple Classic Aerial Gymnastics Club 1A 6 Ages10U 8.350 12 8.875 8 9.200 4T 9.475 3 35.900 6
2018-03-08 Level 4 & 5 State Infinity Gymnastics Academy All 4 Yh B 8.475 18T 9.175 7 9.650 2 9.125 8 36.425 6
2018-02-23 Kinetic Classic Infinity Gymnastics Academy 7 4 Middle 8.350 36T 9.175 17T 9.550 5 9.300 15T 36.375 12
2018-02-02 Chris Waller's Heart Of A Champion Invitational Infinity Gymnastics Academy 12H 4 Jr B 8.675 4 9.225 3 8.750 5 9.325 1 35.975 3
2018-01-18 Circle Of Stars Gymnastics Invitational Infinity Gymnastics Academy C3 4 Jr A 8.525 13 9.275 2T 9.300 3T 8.725 8T 35.825 3
2018-01-12 St Jude Benefit Meet Infinity Gymnastics Academy 3A 4 JrB 8.225 12 9.475 2 9.325 5T 9.100 3 36.125 3
2017-12-14 2017 Women's Hawaiian Pineapple Classic Infinity Gymnastics Academy 1A 4 Age9 8.650 7 8.700 4T 9.125 2 9.425 2 35.900 1
2017-11-10 Illinois NAWGJ Judges Cup 2017 Infinity Gymnastics Academy G3 4 All Ages 8.550 21T 9.475 4 9.325 5T 8.950 13 36.300 8T
2017-03-10 2017 Illinois Level 4 State Championships Infinity Gymnastics Academy 1 4 Ch B 8.350 22T 8.200 26 9.000 17T 8.175 26 33.725 26
2017-02-24 Houston National Invitational - Ocean View Infinity Gymnastics Academy O07 4 JR A 7.900 14 0.000 17 9.250 4 8.550 10 25.700 16
2017-02-10 IGI Chicago Style Gymnastics Meet Infinity Gymnastics Academy 612L 4 JrA 0.000 9 8.100 16 9.000 10 8.350 17 25.450 24
2017-01-28 Wisconsin Dells Gymnastics Vacation Classic - USAG Infinity Gymnastics Academy B7 4 Children 8.000 10T 8.850 7T 8.450 8 8.450 10 33.750 9
2017-01-20 2017 Bravo Classic Infinity Gymnastics Academy 06B 4 6-8yrs 7.850 7 9.175 4 9.150 2 8.425 9 34.600 8
2016-12-15 2016 Hawaiian Pineapple Sanction Infinity Gymnastics Academy 6A 4 Ages 8U 8.200 12 8.800 7T 8.750 12 8.825 7 34.575 8
2016-11-11 2016 Illinois Judges Cup Infinity Gymnastics Academy R3 4 8 and Unde 8.300 2T 7.450 7 9.150 1 8.550 5 33.450 4
2016-03-04 2016 Illinois Level 3 State Championships Elite Sports Complex Inc. 3 Child-C 8.900 26 8.575 18 8.600 10 8.675 15 34.750 17
2016-01-22 King Arthur Invitational Elite Sports Complex Inc. S7 3 Jr.A 8.475 16 6.700 17 7.450 15 8.500 14 31.125 17
Get your scores on
a t-shirt, pin, or hoodie

www.lazysuits.com